Terminal Aerodrome Forecast
Issued by NWS Paducah, KY

Home | Current Version | Previous Version | Text Only | Print | Product List | Glossary On
Versions: 1 2 3 4 5 6 7 8 9 10 11 12 13 14 15 16 17 18 19 20 21 22
000
FTUS43 KPAH 031729
TAFEVV
TAF
KEVV 031729Z 0318/0418 21011G18KT 4SM BR OVC007
      TEMPO 0318/0322 1SM -SHRA BR OVC004
     FM032200 22013KT 5SM -SHRA BR OVC005
     FM040300 32010KT 2SM -RA BR OVC003
     FM041100 35010KT 3SM -SNPL BR OVC003
     FM041500 35012G18KT 3SM -SN BR OVC003=

USA.gov is the U.S. government's official web portal to all federal, state and local government web resources and services.